sensor_id;sensor_type;location;lat;lon;timestamp;temperature;humidity
20246;DHT22;10281;54.406;18.556;2023-07-13T00:01:30;15.10;99.90
20246;DHT22;10281;54.406;18.556;2023-07-13T00:03:58;15.10;99.90
20246;DHT22;10281;54.406;18.556;2023-07-13T00:06:24;15.10;99.90
20246;DHT22;10281;54.406;18.556;2023-07-13T00:08:51;15.10;99.90
20246;DHT22;10281;54.406;18.556;2023-07-13T00:11:18;15.10;99.90
20246;DHT22;10281;54.406;18.556;2023-07-13T00:13:45;15.10;99.90
20246;DHT22;10281;54.406;18.556;2023-07-13T00:16:11;15.00;99.90
20246;DHT22;10281;54.406;18.556;2023-07-13T00:18:40;15.00;99.90
20246;DHT22;10281;54.406;18.556;2023-07-13T00:21:07;15.00;99.90
20246;DHT22;10281;54.406;18.556;2023-07-13T00:23:35;15.00;99.90
20246;DHT22;10281;54.406;18.556;2023-07-13T00:26:03;15.00;99.90
20246;DHT22;10281;54.406;18.556;2023-07-13T00:28:31;14.90;99.90
20246;DHT22;10281;54.406;18.556;2023-07-13T00:30:58;14.90;99.90
20246;DHT22;10281;54.406;18.556;2023-07-13T00:33:25;14.90;99.90
20246;DHT22;10281;54.406;18.556;2023-07-13T00:35:53;14.90;99.90
20246;DHT22;10281;54.406;18.556;2023-07-13T00:38:20;14.80;99.90
20246;DHT22;10281;54.406;18.556;2023-07-13T00:40:47;14.70;99.90
20246;DHT22;10281;54.406;18.556;2023-07-13T00:43:17;14.70;99.90
20246;DHT22;10281;54.406;18.556;2023-07-13T00:48:36;14.70;99.90
20246;DHT22;10281;54.406;18.556;2023-07-13T00:51:03;14.70;99.90
20246;DHT22;10281;54.406;18.556;2023-07-13T00:53:32;14.70;99.90
20246;DHT22;10281;54.406;18.556;2023-07-13T00:55:59;14.70;99.90
20246;DHT22;10281;54.406;18.556;2023-07-13T00:58:27;14.70;99.90
20246;DHT22;10281;54.406;18.556;2023-07-13T01:00:54;14.70;99.90
20246;DHT22;10281;54.406;18.556;2023-07-13T01:03:21;14.60;99.90
20246;DHT22;10281;54.406;18.556;2023-07-13T01:05:50;14.60;99.90
20246;DHT22;10281;54.406;18.556;2023-07-13T01:08:19;14.60;99.90
20246;DHT22;10281;54.406;18.556;2023-07-13T01:10:55;14.60;99.90
20246;DHT22;10281;54.406;18.556;2023-07-13T01:13:22;14.60;99.90
20246;DHT22;10281;54.406;18.556;2023-07-13T01:15:50;14.60;99.90
20246;DHT22;10281;54.406;18.556;2023-07-13T01:18:23;14.60;99.90
20246;DHT22;10281;54.406;18.556;2023-07-13T01:20:55;14.60;99.90
20246;DHT22;10281;54.406;18.556;2023-07-13T01:23:22;14.60;99.90
20246;DHT22;10281;54.406;18.556;2023-07-13T01:25:51;14.60;99.90
20246;DHT22;10281;54.406;18.556;2023-07-13T01:28:18;14.50;99.90
20246;DHT22;10281;54.406;18.556;2023-07-13T01:30:45;14.60;99.90
20246;DHT22;10281;54.406;18.556;2023-07-13T01:33:14;14.60;99.90
20246;DHT22;10281;54.406;18.556;2023-07-13T01:35:43;14.60;99.90
20246;DHT22;10281;54.406;18.556;2023-07-13T01:38:11;14.60;99.90
20246;DHT22;10281;54.406;18.556;2023-07-13T01:40:39;14.60;99.90
20246;DHT22;10281;54.406;18.556;2023-07-13T01:43:06;14.60;99.90
20246;DHT22;10281;54.406;18.556;2023-07-13T01:45:32;14.50;99.90
20246;DHT22;10281;54.406;18.556;2023-07-13T01:47:59;14.50;99.90
20246;DHT22;10281;54.406;18.556;2023-07-13T01:50:27;14.40;99.90
20246;DHT22;10281;54.406;18.556;2023-07-13T01:52:53;14.40;99.90
20246;DHT22;10281;54.406;18.556;2023-07-13T01:55:21;14.40;99.90
20246;DHT22;10281;54.406;18.556;2023-07-13T01:57:48;14.40;99.90
20246;DHT22;10281;54.406;18.556;2023-07-13T02:00:15;14.40;99.90
20246;DHT22;10281;54.406;18.556;2023-07-13T02:02:43;14.40;99.90
20246;DHT22;10281;54.406;18.556;2023-07-13T02:05:10;14.40;99.90
20246;DHT22;10281;54.406;18.556;2023-07-13T02:07:38;14.40;99.90
20246;DHT22;10281;54.406;18.556;2023-07-13T02:10:06;14.40;99.90
20246;DHT22;10281;54.406;18.556;2023-07-13T02:12:34;14.40;99.90
20246;DHT22;10281;54.406;18.556;2023-07-13T02:15:00;14.40;99.90
20246;DHT22;10281;54.406;18.556;2023-07-13T02:17:27;14.40;99.90
20246;DHT22;10281;54.406;18.556;2023-07-13T02:19:54;14.40;99.90
20246;DHT22;10281;54.406;18.556;2023-07-13T02:22:21;14.30;99.90
20246;DHT22;10281;54.406;18.556;2023-07-13T02:24:48;14.30;99.90
20246;DHT22;10281;54.406;18.556;2023-07-13T02:27:16;14.40;99.90
20246;DHT22;10281;54.406;18.556;2023-07-13T02:29:42;14.40;99.90
20246;DHT22;10281;54.406;18.556;2023-07-13T02:32:09;14.40;99.90
20246;DHT22;10281;54.406;18.556;2023-07-13T02:34:36;14.40;99.90
20246;DHT22;10281;54.406;18.556;2023-07-13T02:37:03;14.40;99.90
20246;DHT22;10281;54.406;18.556;2023-07-13T02:39:29;14.40;99.90
20246;DHT22;10281;54.406;18.556;2023-07-13T02:41:59;14.40;99.90
20246;DHT22;10281;54.406;18.556;2023-07-13T02:44:26;14.40;99.90
20246;DHT22;10281;54.406;18.556;2023-07-13T02:46:53;14.30;99.90
20246;DHT22;10281;54.406;18.556;2023-07-13T02:49:19;14.30;99.90
20246;DHT22;10281;54.406;18.556;2023-07-13T02:51:46;14.30;99.90
20246;DHT22;10281;54.406;18.556;2023-07-13T02:54:13;14.30;99.90
20246;DHT22;10281;54.406;18.556;2023-07-13T02:56:40;14.30;99.90
20246;DHT22;10281;54.406;18.556;2023-07-13T02:59:07;14.30;99.90
20246;DHT22;10281;54.406;18.556;2023-07-13T03:01:34;14.30;99.90
20246;DHT22;10281;54.406;18.556;2023-07-13T03:04:01;14.30;99.90
20246;DHT22;10281;54.406;18.556;2023-07-13T03:06:30;14.30;99.90
20246;DHT22;10281;54.406;18.556;2023-07-13T03:08:57;14.30;99.90
20246;DHT22;10281;54.406;18.556;2023-07-13T03:11:23;14.30;99.90
20246;DHT22;10281;54.406;18.556;2023-07-13T03:13:50;14.30;99.90
20246;DHT22;10281;54.406;18.556;2023-07-13T03:16:17;14.30;99.90
20246;DHT22;10281;54.406;18.556;2023-07-13T03:18:45;14.30;99.90
20246;DHT22;10281;54.406;18.556;2023-07-13T03:21:12;14.30;99.90
20246;DHT22;10281;54.406;18.556;2023-07-13T03:23:39;14.40;99.90
20246;DHT22;10281;54.406;18.556;2023-07-13T03:26:11;14.40;99.90
20246;DHT22;10281;54.406;18.556;2023-07-13T03:28:39;14.40;99.90
20246;DHT22;10281;54.406;18.556;2023-07-13T03:31:09;14.50;99.90
20246;DHT22;10281;54.406;18.556;2023-07-13T03:33:36;14.50;99.90
20246;DHT22;10281;54.406;18.556;2023-07-13T03:36:05;14.60;99.90
20246;DHT22;10281;54.406;18.556;2023-07-13T03:38:32;14.60;99.90
20246;DHT22;10281;54.406;18.556;2023-07-13T03:40:58;14.60;99.90
20246;DHT22;10281;54.406;18.556;2023-07-13T03:43:25;14.70;99.90
20246;DHT22;10281;54.406;18.556;2023-07-13T03:45:51;14.70;99.90
20246;DHT22;10281;54.406;18.556;2023-07-13T03:48:18;14.70;99.90
20246;DHT22;10281;54.406;18.556;2023-07-13T03:50:45;14.70;99.90
20246;DHT22;10281;54.406;18.556;2023-07-13T03:53:11;14.80;99.90
20246;DHT22;10281;54.406;18.556;2023-07-13T03:55:38;14.80;99.90
20246;DHT22;10281;54.406;18.556;2023-07-13T03:58:25;14.90;99.90
20246;DHT22;10281;54.406;18.556;2023-07-13T04:00:53;14.90;99.90
20246;DHT22;10281;54.406;18.556;2023-07-13T04:03:20;15.00;99.90
20246;DHT22;10281;54.406;18.556;2023-07-13T04:05:47;15.00;99.90
20246;DHT22;10281;54.406;18.556;2023-07-13T04:08:13;15.10;99.90
20246;DHT22;10281;54.406;18.556;2023-07-13T04:10:40;15.20;99.90
20246;DHT22;10281;54.406;18.556;2023-07-13T04:13:06;15.30;99.90
20246;DHT22;10281;54.406;18.556;2023-07-13T04:15:33;15.40;99.90
20246;DHT22;10281;54.406;18.556;2023-07-13T04:18:00;15.60;99.90
20246;DHT22;10281;54.406;18.556;2023-07-13T04:20:26;15.70;99.90
20246;DHT22;10281;54.406;18.556;2023-07-13T04:22:53;15.80;99.90
20246;DHT22;10281;54.406;18.556;2023-07-13T04:25:21;16.00;99.90
20246;DHT22;10281;54.406;18.556;2023-07-13T04:27:48;16.10;99.90
20246;DHT22;10281;54.406;18.556;2023-07-13T04:30:14;16.20;99.90
20246;DHT22;10281;54.406;18.556;2023-07-13T04:32:41;16.30;99.90
20246;DHT22;10281;54.406;18.556;2023-07-13T04:35:08;16.40;99.90
20246;DHT22;10281;54.406;18.556;2023-07-13T04:37:34;16.50;99.90
20246;DHT22;10281;54.406;18.556;2023-07-13T04:40:02;16.60;99.90
20246;DHT22;10281;54.406;18.556;2023-07-13T04:42:29;16.70;99.90
20246;DHT22;10281;54.406;18.556;2023-07-13T04:44:56;16.90;99.90
20246;DHT22;10281;54.406;18.556;2023-07-13T04:47:22;17.00;99.90
20246;DHT22;10281;54.406;18.556;2023-07-13T04:49:49;17.10;99.90
20246;DHT22;10281;54.406;18.556;2023-07-13T04:52:16;17.20;99.90
20246;DHT22;10281;54.406;18.556;2023-07-13T04:54:42;17.30;99.90
20246;DHT22;10281;54.406;18.556;2023-07-13T04:57:09;17.40;99.90
20246;DHT22;10281;54.406;18.556;2023-07-13T04:59:35;17.50;99.90
20246;DHT22;10281;54.406;18.556;2023-07-13T05:02:02;17.70;99.90
20246;DHT22;10281;54.406;18.556;2023-07-13T05:04:29;17.80;99.90
20246;DHT22;10281;54.406;18.556;2023-07-13T05:06:55;17.90;99.90
20246;DHT22;10281;54.406;18.556;2023-07-13T05:09:22;18.10;99.90
20246;DHT22;10281;54.406;18.556;2023-07-13T05:11:48;18.10;99.90
20246;DHT22;10281;54.406;18.556;2023-07-13T05:14:15;18.30;99.90
20246;DHT22;10281;54.406;18.556;2023-07-13T05:16:42;18.40;99.90
20246;DHT22;10281;54.406;18.556;2023-07-13T05:19:10;18.50;99.90
20246;DHT22;10281;54.406;18.556;2023-07-13T05:21:36;18.60;99.90
20246;DHT22;10281;54.406;18.556;2023-07-13T05:24:03;18.70;99.90
20246;DHT22;10281;54.406;18.556;2023-07-13T05:26:29;18.70;99.90
20246;DHT22;10281;54.406;18.556;2023-07-13T05:28:56;18.80;99.90
20246;DHT22;10281;54.406;18.556;2023-07-13T05:31:23;18.90;99.90
20246;DHT22;10281;54.406;18.556;2023-07-13T05:33:49;19.00;99.90
20246;DHT22;10281;54.406;18.556;2023-07-13T05:36:16;19.10;99.90
20246;DHT22;10281;54.406;18.556;2023-07-13T05:38:43;19.20;99.90
20246;DHT22;10281;54.406;18.556;2023-07-13T05:41:10;19.30;99.90
20246;DHT22;10281;54.406;18.556;2023-07-13T05:43:36;19.40;99.90
20246;DHT22;10281;54.406;18.556;2023-07-13T05:46:03;19.50;99.90
20246;DHT22;10281;54.406;18.556;2023-07-13T05:48:29;19.50;99.90
20246;DHT22;10281;54.406;18.556;2023-07-13T05:50:56;19.60;99.90
20246;DHT22;10281;54.406;18.556;2023-07-13T05:53:22;19.70;99.90
20246;DHT22;10281;54.406;18.556;2023-07-13T05:55:49;19.80;99.90
20246;DHT22;10281;54.406;18.556;2023-07-13T05:58:19;19.90;99.90
20246;DHT22;10281;54.406;18.556;2023-07-13T06:00:47;19.90;99.90
20246;DHT22;10281;54.406;18.556;2023-07-13T06:03:15;20.00;99.90
20246;DHT22;10281;54.406;18.556;2023-07-13T06:05:41;20.00;99.90
20246;DHT22;10281;54.406;18.556;2023-07-13T06:08:08;20.10;99.90
20246;DHT22;10281;54.406;18.556;2023-07-13T06:10:35;20.20;99.90
20246;DHT22;10281;54.406;18.556;2023-07-13T06:13:03;20.20;99.90
20246;DHT22;10281;54.406;18.556;2023-07-13T06:15:29;20.20;99.90
20246;DHT22;10281;54.406;18.556;2023-07-13T06:17:56;20.20;99.90
20246;DHT22;10281;54.406;18.556;2023-07-13T06:20:22;20.20;99.90
20246;DHT22;10281;54.406;18.556;2023-07-13T06:22:49;20.40;99.90
20246;DHT22;10281;54.406;18.556;2023-07-13T06:25:17;20.40;99.90
20246;DHT22;10281;54.406;18.556;2023-07-13T06:27:43;20.40;99.90
20246;DHT22;10281;54.406;18.556;2023-07-13T06:30:11;20.50;99.90
20246;DHT22;10281;54.406;18.556;2023-07-13T06:32:38;20.50;99.90
20246;DHT22;10281;54.406;18.556;2023-07-13T06:35:05;20.60;99.90
20246;DHT22;10281;54.406;18.556;2023-07-13T06:37:32;20.70;99.90
20246;DHT22;10281;54.406;18.556;2023-07-13T06:39:59;20.70;99.90
20246;DHT22;10281;54.406;18.556;2023-07-13T06:42:25;20.80;99.90
20246;DHT22;10281;54.406;18.556;2023-07-13T06:44:52;20.80;99.90
20246;DHT22;10281;54.406;18.556;2023-07-13T06:47:19;20.80;99.90
20246;DHT22;10281;54.406;18.556;2023-07-13T06:49:45;20.80;99.90
20246;DHT22;10281;54.406;18.556;2023-07-13T06:52:12;20.80;99.90
20246;DHT22;10281;54.406;18.556;2023-07-13T06:54:39;20.90;99.90
20246;DHT22;10281;54.406;18.556;2023-07-13T06:57:05;20.90;99.90
20246;DHT22;10281;54.406;18.556;2023-07-13T06:59:33;21.00;99.90
20246;DHT22;10281;54.406;18.556;2023-07-13T07:01:59;21.10;99.90
20246;DHT22;10281;54.406;18.556;2023-07-13T07:04:26;21.10;99.90
20246;DHT22;10281;54.406;18.556;2023-07-13T07:06:53;21.20;99.90
20246;DHT22;10281;54.406;18.556;2023-07-13T07:09:19;21.30;99.90
20246;DHT22;10281;54.406;18.556;2023-07-13T07:11:46;21.40;99.90
20246;DHT22;10281;54.406;18.556;2023-07-13T07:14:13;21.30;99.90
20246;DHT22;10281;54.406;18.556;2023-07-13T07:16:39;21.40;99.90
20246;DHT22;10281;54.406;18.556;2023-07-13T07:19:06;21.40;99.90
20246;DHT22;10281;54.406;18.556;2023-07-13T07:21:33;21.40;99.90
20246;DHT22;10281;54.406;18.556;2023-07-13T07:23:59;21.40;99.90
20246;DHT22;10281;54.406;18.556;2023-07-13T07:26:26;21.50;99.90
20246;DHT22;10281;54.406;18.556;2023-07-13T07:28:53;21.30;99.90
20246;DHT22;10281;54.406;18.556;2023-07-13T07:31:19;21.50;99.90
20246;DHT22;10281;54.406;18.556;2023-07-13T07:33:46;21.60;99.90
20246;DHT22;10281;54.406;18.556;2023-07-13T07:36:13;21.70;99.90
20246;DHT22;10281;54.406;18.556;2023-07-13T07:38:39;21.80;99.90
20246;DHT22;10281;54.406;18.556;2023-07-13T07:41:06;21.80;99.90
20246;DHT22;10281;54.406;18.556;2023-07-13T07:43:32;21.80;99.90
20246;DHT22;10281;54.406;18.556;2023-07-13T07:45:59;21.70;99.90
20246;DHT22;10281;54.406;18.556;2023-07-13T07:48:26;21.70;99.90
20246;DHT22;10281;54.406;18.556;2023-07-13T07:50:52;21.70;99.90
20246;DHT22;10281;54.406;18.556;2023-07-13T07:53:19;21.80;99.90
20246;DHT22;10281;54.406;18.556;2023-07-13T07:55:46;21.90;99.90
20246;DHT22;10281;54.406;18.556;2023-07-13T07:58:13;22.00;99.90
20246;DHT22;10281;54.406;18.556;2023-07-13T08:00:40;22.00;99.90
20246;DHT22;10281;54.406;18.556;2023-07-13T08:03:06;22.10;99.90
20246;DHT22;10281;54.406;18.556;2023-07-13T08:05:35;22.20;99.90
20246;DHT22;10281;54.406;18.556;2023-07-13T08:08:03;22.20;99.90
20246;DHT22;10281;54.406;18.556;2023-07-13T08:10:30;22.20;99.90
20246;DHT22;10281;54.406;18.556;2023-07-13T08:12:56;22.30;99.90
20246;DHT22;10281;54.406;18.556;2023-07-13T08:15:23;22.30;99.90
20246;DHT22;10281;54.406;18.556;2023-07-13T08:17:50;22.30;99.90
20246;DHT22;10281;54.406;18.556;2023-07-13T08:20:16;22.30;99.90
20246;DHT22;10281;54.406;18.556;2023-07-13T08:22:43;22.50;99.90
20246;DHT22;10281;54.406;18.556;2023-07-13T08:25:11;22.60;99.90
20246;DHT22;10281;54.406;18.556;2023-07-13T08:27:38;22.60;99.90
20246;DHT22;10281;54.406;18.556;2023-07-13T08:30:06;22.50;99.90
20246;DHT22;10281;54.406;18.556;2023-07-13T08:32:34;22.40;99.90
20246;DHT22;10281;54.406;18.556;2023-07-13T08:35:00;22.30;99.90
20246;DHT22;10281;54.406;18.556;2023-07-13T08:37:27;22.30;99.90
20246;DHT22;10281;54.406;18.556;2023-07-13T08:39:54;22.20;99.90
20246;DHT22;10281;54.406;18.556;2023-07-13T08:42:37;22.20;99.90
20246;DHT22;10281;54.406;18.556;2023-07-13T08:47:49;22.30;99.90
20246;DHT22;10281;54.406;18.556;2023-07-13T08:50:17;22.30;99.90
20246;DHT22;10281;54.406;18.556;2023-07-13T08:52:45;22.30;99.90
20246;DHT22;10281;54.406;18.556;2023-07-13T08:55:17;22.30;99.90
20246;DHT22;10281;54.406;18.556;2023-07-13T08:57:48;22.50;99.90
20246;DHT22;10281;54.406;18.556;2023-07-13T09:00:15;22.70;99.90
20246;DHT22;10281;54.406;18.556;2023-07-13T09:02:46;22.80;99.90
20246;DHT22;10281;54.406;18.556;2023-07-13T09:05:25;23.00;99.90
20246;DHT22;10281;54.406;18.556;2023-07-13T09:10:30;23.10;99.90
20246;DHT22;10281;54.406;18.556;2023-07-13T09:13:26;23.00;99.90
20246;DHT22;10281;54.406;18.556;2023-07-13T09:15:51;23.10;99.90
20246;DHT22;10281;54.406;18.556;2023-07-13T09:18:28;23.10;99.90
20246;DHT22;10281;54.406;18.556;2023-07-13T09:21:03;23.10;99.90
20246;DHT22;10281;54.406;18.556;2023-07-13T09:23:31;23.00;99.90
20246;DHT22;10281;54.406;18.556;2023-07-13T09:26:02;23.10;99.90
20246;DHT22;10281;54.406;18.556;2023-07-13T09:28:33;23.00;99.90
20246;DHT22;10281;54.406;18.556;2023-07-13T09:31:03;23.00;99.90
20246;DHT22;10281;54.406;18.556;2023-07-13T09:33:30;23.20;99.90
20246;DHT22;10281;54.406;18.556;2023-07-13T09:35:58;23.30;99.90
20246;DHT22;10281;54.406;18.556;2023-07-13T09:38:27;23.30;99.90
20246;DHT22;10281;54.406;18.556;2023-07-13T09:41:14;23.30;99.90
20246;DHT22;10281;54.406;18.556;2023-07-13T09:43:35;23.30;99.90
20246;DHT22;10281;54.406;18.556;2023-07-13T09:46:01;23.30;99.90
20246;DHT22;10281;54.406;18.556;2023-07-13T09:48:34;23.40;99.90
20246;DHT22;10281;54.406;18.556;2023-07-13T09:51:16;23.60;99.90
20246;DHT22;10281;54.406;18.556;2023-07-13T09:53:43;23.60;99.90
20246;DHT22;10281;54.406;18.556;2023-07-13T09:56:21;23.70;99.90
20246;DHT22;10281;54.406;18.556;2023-07-13T09:58:48;23.80;99.90
20246;DHT22;10281;54.406;18.556;2023-07-13T10:01:15;23.80;99.90
20246;DHT22;10281;54.406;18.556;2023-07-13T10:06:18;23.80;99.90
20246;DHT22;10281;54.406;18.556;2023-07-13T10:08:46;23.80;99.90
20246;DHT22;10281;54.406;18.556;2023-07-13T10:11:22;23.80;99.90
20246;DHT22;10281;54.406;18.556;2023-07-13T10:13:55;23.50;99.90
20246;DHT22;10281;54.406;18.556;2023-07-13T10:16:25;23.20;99.90
20246;DHT22;10281;54.406;18.556;2023-07-13T10:18:57;23.00;99.90
20246;DHT22;10281;54.406;18.556;2023-07-13T10:21:27;22.90;99.90
20246;DHT22;10281;54.406;18.556;2023-07-13T10:24:00;22.60;99.90
20246;DHT22;10281;54.406;18.556;2023-07-13T10:26:31;22.60;99.90
20246;DHT22;10281;54.406;18.556;2023-07-13T10:29:09;22.40;99.90
20246;DHT22;10281;54.406;18.556;2023-07-13T10:31:38;22.40;99.90
20246;DHT22;10281;54.406;18.556;2023-07-13T10:34:07;22.10;99.90
20246;DHT22;10281;54.406;18.556;2023-07-13T10:36:40;22.10;99.90
20246;DHT22;10281;54.406;18.556;2023-07-13T10:39:13;22.00;99.90
20246;DHT22;10281;54.406;18.556;2023-07-13T10:41:40;21.90;99.90
20246;DHT22;10281;54.406;18.556;2023-07-13T10:44:15;21.80;99.90
20246;DHT22;10281;54.406;18.556;2023-07-13T10:46:38;21.80;99.90
20246;DHT22;10281;54.406;18.556;2023-07-13T10:49:07;21.90;99.90
20246;DHT22;10281;54.406;18.556;2023-07-13T10:51:34;21.90;99.90
20246;DHT22;10281;54.406;18.556;2023-07-13T10:54:20;21.80;99.90
20246;DHT22;10281;54.406;18.556;2023-07-13T10:56:53;21.80;99.90
20246;DHT22;10281;54.406;18.556;2023-07-13T10:59:25;21.80;99.90
20246;DHT22;10281;54.406;18.556;2023-07-13T11:02:10;21.80;99.90
20246;DHT22;10281;54.406;18.556;2023-07-13T11:04:44;21.90;99.90
20246;DHT22;10281;54.406;18.556;2023-07-13T11:07:25;21.90;99.90
20246;DHT22;10281;54.406;18.556;2023-07-13T11:09:55;22.00;99.90
20246;DHT22;10281;54.406;18.556;2023-07-13T11:12:29;22.00;99.90
20246;DHT22;10281;54.406;18.556;2023-07-13T11:15:04;22.10;99.90
20246;DHT22;10281;54.406;18.556;2023-07-13T11:20:22;22.20;99.90
20246;DHT22;10281;54.406;18.556;2023-07-13T11:22:53;22.20;99.90
20246;DHT22;10281;54.406;18.556;2023-07-13T11:25:27;22.30;99.90
20246;DHT22;10281;54.406;18.556;2023-07-13T11:33:53;22.40;99.90
20246;DHT22;10281;54.406;18.556;2023-07-13T11:36:22;22.30;99.90
20246;DHT22;10281;54.406;18.556;2023-07-13T11:38:59;22.30;99.90
20246;DHT22;10281;54.406;18.556;2023-07-13T11:41:29;22.30;99.90
20246;DHT22;10281;54.406;18.556;2023-07-13T11:44:20;22.20;99.90
20246;DHT22;10281;54.406;18.556;2023-07-13T11:46:49;22.30;99.90
20246;DHT22;10281;54.406;18.556;2023-07-13T11:49:19;22.30;99.90
20246;DHT22;10281;54.406;18.556;2023-07-13T11:51:46;22.40;99.90
20246;DHT22;10281;54.406;18.556;2023-07-13T11:54:23;22.40;99.90
20246;DHT22;10281;54.406;18.556;2023-07-13T11:56:50;22.50;99.90
20246;DHT22;10281;54.406;18.556;2023-07-13T11:59:18;22.50;99.90
20246;DHT22;10281;54.406;18.556;2023-07-13T12:01:49;22.60;99.90
20246;DHT22;10281;54.406;18.556;2023-07-13T12:04:21;22.60;99.90
20246;DHT22;10281;54.406;18.556;2023-07-13T12:06:56;22.70;99.90
20246;DHT22;10281;54.406;18.556;2023-07-13T12:09:26;22.60;99.90
20246;DHT22;10281;54.406;18.556;2023-07-13T12:11:53;22.70;99.90
20246;DHT22;10281;54.406;18.556;2023-07-13T12:14:20;22.60;99.90
20246;DHT22;10281;54.406;18.556;2023-07-13T12:16:49;22.60;99.90
20246;DHT22;10281;54.406;18.556;2023-07-13T12:19:21;22.50;99.90
20246;DHT22;10281;54.406;18.556;2023-07-13T12:21:49;22.60;99.90
20246;DHT22;10281;54.406;18.556;2023-07-13T12:24:18;22.60;99.90
20246;DHT22;10281;54.406;18.556;2023-07-13T12:26:52;22.60;99.90
20246;DHT22;10281;54.406;18.556;2023-07-13T12:29:21;22.60;99.90
20246;DHT22;10281;54.406;18.556;2023-07-13T12:31:49;22.60;99.90
20246;DHT22;10281;54.406;18.556;2023-07-13T12:34:21;22.60;99.90
20246;DHT22;10281;54.406;18.556;2023-07-13T12:36:54;22.50;99.90
20246;DHT22;10281;54.406;18.556;2023-07-13T12:39:25;22.40;99.90
20246;DHT22;10281;54.406;18.556;2023-07-13T12:41:53;22.30;99.90
20246;DHT22;10281;54.406;18.556;2023-07-13T12:44:31;22.20;99.90
20246;DHT22;10281;54.406;18.556;2023-07-13T12:47:04;22.20;99.90
20246;DHT22;10281;54.406;18.556;2023-07-13T12:49:34;22.20;99.90
20246;DHT22;10281;54.406;18.556;2023-07-13T12:52:02;22.20;99.90
20246;DHT22;10281;54.406;18.556;2023-07-13T12:54:31;22.30;99.90
20246;DHT22;10281;54.406;18.556;2023-07-13T12:56:59;22.40;99.90
20246;DHT22;10281;54.406;18.556;2023-07-13T12:59:30;22.30;99.90
20246;DHT22;10281;54.406;18.556;2023-07-13T13:01:59;22.40;99.90
20246;DHT22;10281;54.406;18.556;2023-07-13T13:04:26;22.30;99.90
20246;DHT22;10281;54.406;18.556;2023-07-13T13:07:02;22.20;99.90
20246;DHT22;10281;54.406;18.556;2023-07-13T13:09:29;22.10;99.90
20246;DHT22;10281;54.406;18.556;2023-07-13T13:11:56;21.90;99.90
20246;DHT22;10281;54.406;18.556;2023-07-13T13:14:23;22.00;99.90
20246;DHT22;10281;54.406;18.556;2023-07-13T13:16:51;22.00;99.90
20246;DHT22;10281;54.406;18.556;2023-07-13T13:19:25;22.00;99.90
20246;DHT22;10281;54.406;18.556;2023-07-13T13:21:54;22.00;99.90
20246;DHT22;10281;54.406;18.556;2023-07-13T13:24:24;21.90;99.90
20246;DHT22;10281;54.406;18.556;2023-07-13T13:26:52;21.90;99.90
20246;DHT22;10281;54.406;18.556;2023-07-13T13:29:21;21.90;99.90
20246;DHT22;10281;54.406;18.556;2023-07-13T13:31:50;21.80;99.90
20246;DHT22;10281;54.406;18.556;2023-07-13T13:34:19;21.90;99.90
20246;DHT22;10281;54.406;18.556;2023-07-13T13:36:47;21.90;99.90
20246;DHT22;10281;54.406;18.556;2023-07-13T13:39:20;21.90;99.90
20246;DHT22;10281;54.406;18.556;2023-07-13T13:41:48;22.00;99.90
20246;DHT22;10281;54.406;18.556;2023-07-13T13:44:16;21.90;99.90
20246;DHT22;10281;54.406;18.556;2023-07-13T13:46:46;21.90;99.90
20246;DHT22;10281;54.406;18.556;2023-07-13T13:49:17;22.00;99.90
20246;DHT22;10281;54.406;18.556;2023-07-13T13:51:45;22.10;99.90
20246;DHT22;10281;54.406;18.556;2023-07-13T13:54:13;22.20;99.90
20246;DHT22;10281;54.406;18.556;2023-07-13T13:56:43;22.30;99.90
20246;DHT22;10281;54.406;18.556;2023-07-13T13:59:11;22.30;99.90
20246;DHT22;10281;54.406;18.556;2023-07-13T14:01:38;22.30;99.90
20246;DHT22;10281;54.406;18.556;2023-07-13T14:04:06;22.40;99.90
20246;DHT22;10281;54.406;18.556;2023-07-13T14:06:35;22.30;99.90
20246;DHT22;10281;54.406;18.556;2023-07-13T14:09:02;22.30;99.90
20246;DHT22;10281;54.406;18.556;2023-07-13T14:11:30;22.20;99.90
20246;DHT22;10281;54.406;18.556;2023-07-13T14:13:59;22.30;99.90
20246;DHT22;10281;54.406;18.556;2023-07-13T14:16:29;22.30;99.90
20246;DHT22;10281;54.406;18.556;2023-07-13T14:18:58;22.20;99.90
20246;DHT22;10281;54.406;18.556;2023-07-13T14:21:27;22.20;99.90
20246;DHT22;10281;54.406;18.556;2023-07-13T14:23:54;22.10;99.90
20246;DHT22;10281;54.406;18.556;2023-07-13T14:26:23;22.00;99.90
20246;DHT22;10281;54.406;18.556;2023-07-13T14:28:54;22.00;99.90
20246;DHT22;10281;54.406;18.556;2023-07-13T14:31:22;22.00;99.90
20246;DHT22;10281;54.406;18.556;2023-07-13T14:33:49;22.00;99.90
20246;DHT22;10281;54.406;18.556;2023-07-13T14:36:27;22.00;99.90
20246;DHT22;10281;54.406;18.556;2023-07-13T14:38:53;22.00;99.90
20246;DHT22;10281;54.406;18.556;2023-07-13T14:41:21;22.00;99.90
20246;DHT22;10281;54.406;18.556;2023-07-13T14:43:48;22.00;99.90
20246;DHT22;10281;54.406;18.556;2023-07-13T14:46:34;22.00;99.90
20246;DHT22;10281;54.406;18.556;2023-07-13T14:49:04;22.00;99.90
20246;DHT22;10281;54.406;18.556;2023-07-13T14:51:33;22.00;99.90
20246;DHT22;10281;54.406;18.556;2023-07-13T14:54:04;21.90;99.90
20246;DHT22;10281;54.406;18.556;2023-07-13T14:56:31;21.90;99.90
20246;DHT22;10281;54.406;18.556;2023-07-13T14:58:57;21.90;99.90
20246;DHT22;10281;54.406;18.556;2023-07-13T15:01:24;21.80;99.90
20246;DHT22;10281;54.406;18.556;2023-07-13T15:03:52;21.80;99.90
20246;DHT22;10281;54.406;18.556;2023-07-13T15:06:19;21.80;99.90
20246;DHT22;10281;54.406;18.556;2023-07-13T15:08:47;21.80;99.90
20246;DHT22;10281;54.406;18.556;2023-07-13T15:11:15;21.80;99.90
20246;DHT22;10281;54.406;18.556;2023-07-13T15:13:42;21.70;99.90
20246;DHT22;10281;54.406;18.556;2023-07-13T15:16:15;21.70;99.90
20246;DHT22;10281;54.406;18.556;2023-07-13T15:18:43;21.60;99.90
20246;DHT22;10281;54.406;18.556;2023-07-13T15:21:11;21.40;99.90
20246;DHT22;10281;54.406;18.556;2023-07-13T15:23:41;21.30;99.90
20246;DHT22;10281;54.406;18.556;2023-07-13T15:26:12;21.40;99.90
20246;DHT22;10281;54.406;18.556;2023-07-13T15:28:41;21.40;99.90
20246;DHT22;10281;54.406;18.556;2023-07-13T15:31:22;21.40;99.90
20246;DHT22;10281;54.406;18.556;2023-07-13T15:33:51;21.40;99.90
20246;DHT22;10281;54.406;18.556;2023-07-13T15:36:19;21.50;99.90
20246;DHT22;10281;54.406;18.556;2023-07-13T15:38:47;21.50;99.90
20246;DHT22;10281;54.406;18.556;2023-07-13T15:41:22;21.50;99.90
20246;DHT22;10281;54.406;18.556;2023-07-13T15:43:50;21.50;99.90